Time;durP1;ratioP1;P1;durP2;ratioP2;P2;SDS_P1;SDS_P2;PMS_P1;PMS_P2;Temp;Humidity;BMP_temperature;BMP_pressure;BME280_temperature;BME280_humidity;BME280_pressure;Samples;Min_cycle;Max_cycle;Signal;HPM_P1;HPM_P2
2022/10/08 00:01:45;;;;;;;10.57;6.63;;;24.20;60.00;;;;;;5027219;28;20083;-71
2022/10/08 00:04:11;;;;;;;13.27;6.82;;;24.30;60.10;;;;;;5031520;28;20509;-71
2022/10/08 00:06:37;;;;;;;8.88;6.40;;;24.10;60.10;;;;;;5031532;28;20484;-70
2022/10/08 00:09:06;;;;;;;9.60;6.22;;;24.20;60.20;;;;;;5031930;28;20104;-71
2022/10/08 00:11:35;;;;;;;12.38;6.15;;;24.20;60.20;;;;;;5031802;28;20029;-71
2022/10/08 00:14:02;;;;;;;9.40;6.45;;;24.20;60.20;;;;;;5031764;28;20041;-71
2022/10/08 00:16:34;;;;;;;10.65;5.75;;;24.10;60.10;;;;;;5031233;28;20029;-71
2022/10/08 00:19:04;;;;;;;9.30;6.32;;;24.20;60.20;;;;;;5030959;28;20029;-71
2022/10/08 00:21:33;;;;;;;11.85;6.07;;;24.20;60.20;;;;;;5029615;28;20040;-70
2022/10/08 00:24:02;;;;;;;10.45;5.70;;;24.20;60.20;;;;;;5030942;28;20041;-71
2022/10/08 00:26:31;;;;;;;9.65;6.13;;;24.20;60.10;;;;;;5030494;28;20107;-71
2022/10/08 00:29:01;;;;;;;10.10;6.03;;;24.30;60.20;;;;;;5029591;28;20044;-71
2022/10/08 00:31:33;;;;;;;9.00;5.53;;;24.20;60.10;;;;;;5012055;28;20045;-71
2022/10/08 00:34:04;;;;;;;12.50;6.68;;;24.20;60.10;;;;;;5030581;28;20112;-71
2022/10/08 00:36:32;;;;;;;8.57;5.93;;;24.30;60.10;;;;;;5028924;28;20021;-72
2022/10/08 00:39:01;;;;;;;8.45;5.93;;;24.30;60.10;;;;;;5030428;28;20038;-71
2022/10/08 00:41:30;;;;;;;8.77;5.95;;;24.30;60.10;;;;;;5030296;28;20033;-71
2022/10/08 00:44:01;;;;;;;10.02;5.80;;;24.20;60.10;;;;;;5028059;28;20033;-71
2022/10/08 00:46:26;;;;;;;9.88;6.07;;;24.20;60.10;;;;;;5030136;28;20533;-71
2022/10/08 00:49:13;;;;;;;6.63;5.13;;;24.20;60.10;;;;;;5030151;28;20033;-70
2022/10/08 00:51:48;;;;;;;7.00;4.95;;;24.20;60.20;;;;;;5030584;28;20124;-72
2022/10/08 00:54:19;;;;;;;8.57;5.15;;;24.10;60.20;;;;;;5031078;28;20481;-71
2022/10/08 00:56:50;;;;;;;9.63;5.05;;;24.00;60.10;;;;;;5030962;28;20261;-72
2022/10/08 00:59:16;;;;;;;7.43;5.18;;;24.00;60.10;;;;;;5031070;28;20056;-71
2022/10/08 01:01:43;;;;;;;7.95;5.47;;;24.00;60.10;;;;;;5030952;28;20120;-71
2022/10/08 01:04:11;;;;;;;11.20;5.28;;;24.00;60.10;;;;;;5031177;28;20426;-71
2022/10/08 01:07:17;;;;;;;9.65;5.82;;;24.00;60.20;;;;;;5030999;28;20447;-71
2022/10/08 01:09:52;;;;;;;5.97;5.35;;;24.00;60.20;;;;;;5031216;28;20076;-72
2022/10/08 01:12:44;;;;;;;5.75;4.88;;;24.00;60.10;;;;;;5029306;28;20030;-71
2022/10/08 01:15:38;;;;;;;8.38;5.93;;;24.00;60.20;;;;;;5031001;28;20037;-71
2022/10/08 01:18:13;;;;;;;6.55;5.15;;;24.00;60.10;;;;;;4934207;29;20050;-71
2022/10/08 01:21:21;;;;;;;6.78;5.05;;;24.00;60.10;;;;;;4950373;29;20090;-73
2022/10/08 01:24:10;;;;;;;7.72;4.25;;;24.00;60.00;;;;;;4934105;29;20085;-71
2022/10/08 01:26:47;;;;;;;8.13;5.00;;;24.00;60.00;;;;;;4933556;29;20185;-71
2022/10/08 01:29:31;;;;;;;5.90;4.15;;;24.20;60.10;;;;;;4949575;29;20103;-71
2022/10/08 01:32:27;;;;;;;8.43;4.80;;;24.10;60.00;;;;;;4933802;29;20035;-72
2022/10/08 01:35:02;;;;;;;7.68;4.70;;;24.10;59.90;;;;;;4873838;29;20057;-71
2022/10/08 01:37:37;;;;;;;5.72;4.78;;;24.10;59.90;;;;;;4873796;29;20044;-71
2022/10/08 01:40:11;;;;;;;8.25;4.57;;;24.10;60.00;;;;;;4873852;29;20685;-71
2022/10/08 01:42:39;;;;;;;6.60;4.82;;;24.00;59.90;;;;;;4873096;29;20052;-71
2022/10/08 01:45:14;;;;;;;5.85;4.75;;;24.00;59.90;;;;;;4873821;29;20098;-71
2022/10/08 01:47:43;;;;;;;9.38;4.78;;;24.00;60.00;;;;;;4874063;29;20539;-71
2022/10/08 01:50:15;;;;;;;5.00;4.25;;;24.00;60.20;;;;;;4877442;29;20040;-71
2022/10/08 01:52:46;;;;;;;6.65;4.68;;;24.00;60.20;;;;;;4877157;29;20191;-70
2022/10/08 01:55:19;;;;;;;7.88;3.97;;;24.00;60.20;;;;;;4910080;29;20108;-71
2022/10/08 01:57:46;;;;;;;7.78;4.50;;;23.90;60.20;;;;;;4933736;29;20433;-71
2022/10/08 02:00:13;;;;;;;7.07;4.38;;;23.90;60.20;;;;;;4948948;28;20167;-71
2022/10/08 02:02:41;;;;;;;7.00;3.97;;;24.00;60.20;;;;;;4953655;28;20043;-71
2022/10/08 02:05:08;;;;;;;5.55;4.55;;;23.80;60.10;;;;;;4953227;28;20055;-71
2022/10/08 02:07:37;;;;;;;8.98;5.32;;;23.90;60.30;;;;;;4953617;28;20536;-71
2022/10/08 02:10:13;;;;;;;8.88;4.57;;;24.00;60.20;;;;;;4937236;29;20039;-71
2022/10/08 02:12:40;;;;;;;9.43;4.85;;;23.80;60.20;;;;;;5028157;28;20052;-71
2022/10/08 02:15:42;;;;;;;7.18;4.13;;;23.90;60.40;;;;;;5034021;28;20115;-71
2022/10/08 02:18:10;;;;;;;9.38;4.70;;;23.90;60.50;;;;;;4972436;28;20612;-71
2022/10/08 02:20:43;;;;;;;6.70;4.47;;;23.80;60.40;;;;;;4972414;28;20389;-72
2022/10/08 02:23:25;;;;;;;6.47;3.78;;;23.80;60.20;;;;;;4972494;28;20473;-70
2022/10/08 02:25:57;;;;;;;5.22;3.55;;;23.70;60.40;;;;;;4972447;28;20034;-71
2022/10/08 02:28:48;;;;;;;5.97;3.80;;;23.80;60.50;;;;;;4972078;28;20720;-71
2022/10/08 02:31:46;;;;;;;4.35;3.95;;;23.80;60.40;;;;;;4972371;28;20070;-71
2022/10/08 02:34:34;;;;;;;4.95;3.92;;;23.80;60.30;;;;;;4972251;28;20053;-71
2022/10/08 02:37:06;;;;;;;7.15;4.28;;;23.90;60.50;;;;;;4971862;28;20031;-71
2022/10/08 02:39:35;;;;;;;7.88;4.28;;;23.80;60.30;;;;;;4971210;28;20050;-71
2022/10/08 02:42:07;;;;;;;8.23;4.35;;;23.90;60.30;;;;;;4971992;28;20043;-71
2022/10/08 02:44:39;;;;;;;5.18;4.25;;;23.80;60.10;;;;;;4972293;28;20074;-70
2022/10/08 02:47:12;;;;;;;5.97;4.13;;;23.90;60.30;;;;;;4971807;28;20559;-71
2022/10/08 02:49:43;;;;;;;8.15;4.25;;;23.90;60.20;;;;;;4972241;28;20488;-71
2022/10/08 02:52:10;;;;;;;9.40;5.32;;;24.00;60.20;;;;;;4971610;28;20038;-71
2022/10/08 02:54:39;;;;;;;5.25;4.38;;;24.00;60.10;;;;;;4994287;28;20384;-71
2022/10/08 02:57:22;;;;;;;5.05;4.55;;;24.00;60.20;;;;;;5033033;28;20065;-71
2022/10/08 02:59:49;;;;;;;7.00;5.15;;;24.00;60.10;;;;;;5032377;28;20029;-71
2022/10/08 03:02:26;;;;;;;5.47;4.70;;;24.00;60.10;;;;;;5031034;28;20530;-71
2022/10/08 03:05:04;;;;;;;9.52;4.45;;;24.00;60.10;;;;;;5032255;28;20057;-71
2022/10/08 03:07:32;;;;;;;5.15;4.28;;;24.10;60.20;;;;;;5031710;28;20037;-71
2022/10/08 03:10:01;;;;;;;11.63;5.05;;;24.10;60.10;;;;;;5032890;28;20021;-72
2022/10/08 03:12:30;;;;;;;5.03;4.25;;;24.00;60.00;;;;;;5032975;28;20049;-70
2022/10/08 03:14:56;;;;;;;7.75;4.95;;;24.00;60.00;;;;;;5032716;28;20038;-71
2022/10/08 03:17:30;;;;;;;10.32;5.10;;;24.20;60.00;;;;;;5031386;28;20044;-71
2022/10/08 03:19:57;;;;;;;5.82;4.90;;;24.00;60.00;;;;;;5033209;28;20037;-71
2022/10/08 03:22:23;;;;;;;6.53;4.70;;;24.10;60.00;;;;;;5032854;28;20037;-71
2022/10/08 03:24:49;;;;;;;7.20;4.60;;;24.10;60.00;;;;;;5032657;28;20086;-69
2022/10/08 03:27:15;;;;;;;4.57;3.85;;;24.10;59.90;;;;;;5032485;28;20037;-71
2022/10/08 03:29:41;;;;;;;14.68;5.75;;;24.10;59.90;;;;;;5032609;28;20113;-71
2022/10/08 03:32:07;;;;;;;8.02;5.82;;;24.20;59.90;;;;;;5032418;28;20116;-71
2022/10/08 03:34:33;;;;;;;8.43;6.15;;;24.20;59.90;;;;;;5031309;28;20037;-70
2022/10/08 03:36:59;;;;;;;11.35;7.07;;;24.10;59.90;;;;;;5030299;28;20053;-71
2022/10/08 03:39:25;;;;;;;9.88;6.85;;;24.20;59.90;;;;;;5032333;28;20401;-72
2022/10/08 03:41:51;;;;;;;9.05;6.25;;;24.20;59.90;;;;;;5032297;28;20021;-71
2022/10/08 03:44:17;;;;;;;9.82;5.82;;;24.10;59.90;;;;;;5032267;28;20116;-71
2022/10/08 03:46:43;;;;;;;7.97;5.65;;;24.00;59.90;;;;;;5032410;28;20034;-71
2022/10/08 03:49:09;;;;;;;12.65;6.20;;;24.10;60.00;;;;;;5031978;28;20029;-71
2022/10/08 03:51:35;;;;;;;7.53;6.28;;;24.10;60.00;;;;;;5032409;28;20034;-71
2022/10/08 03:54:01;;;;;;;8.07;5.28;;;24.00;59.90;;;;;;5032050;28;20069;-72
2022/10/08 03:56:27;;;;;;;8.13;5.47;;;24.00;60.10;;;;;;5032357;28;20411;-73
2022/10/08 03:58:55;;;;;;;7.07;4.22;;;24.20;59.60;;;;;;5031100;28;20470;-73
2022/10/08 04:01:22;;;;;;;9.40;6.10;;;24.40;59.10;;;;;;5032167;28;20033;-74
2022/10/08 04:03:48;;;;;;;8.15;5.70;;;24.40;58.70;;;;;;5030777;28;20034;-73
2022/10/08 04:06:15;;;;;;;10.23;6.60;;;24.60;58.40;;;;;;5031129;28;20073;-72
2022/10/08 04:08:41;;;;;;;13.40;6.32;;;24.50;58.00;;;;;;5031058;28;20037;-72
2022/10/08 04:11:10;;;;;;;9.68;6.75;;;24.50;57.80;;;;;;5030137;28;20053;-70
2022/10/08 04:13:36;;;;;;;10.50;6.15;;;24.60;58.00;;;;;;5030691;28;20083;-72
2022/10/08 04:16:05;;;;;;;8.75;6.85;;;24.40;57.90;;;;;;5030941;28;20038;-72
2022/10/08 04:18:32;;;;;;;9.07;6.47;;;24.60;60.60;;;;;;5031115;28;20117;-79
2022/10/08 04:20:59;;;;;;;9.88;5.78;;;24.70;63.30;;;;;;5031171;28;20044;-73
2022/10/08 04:23:26;;;;;;;9.57;5.93;;;25.30;62.90;;;;;;5031499;28;20029;-76
2022/10/08 04:25:53;;;;;;;11.00;5.28;;;25.30;61.80;;;;;;5031137;28;20033;-73
2022/10/08 04:28:20;;;;;;;7.75;6.63;;;25.40;58.80;;;;;;5031740;28;20037;-74
2022/10/08 04:30:59;;;;;;;9.13;5.57;;;25.30;57.70;;;;;;5031562;28;20037;-72
2022/10/08 04:33:26;;;;;;;7.75;5.38;;;25.40;56.60;;;;;;5030468;28;20041;-72
2022/10/08 04:35:52;;;;;;;7.20;5.15;;;25.20;56.50;;;;;;5020216;28;20033;-73
2022/10/08 04:38:18;;;;;;;5.45;4.47;;;25.10;55.90;;;;;;5011341;28;20037;-73
2022/10/08 04:40:44;;;;;;;11.95;5.78;;;25.20;55.00;;;;;;5011513;28;20038;-73
2022/10/08 04:43:11;;;;;;;6.90;4.97;;;25.20;54.40;;;;;;5011502;28;20044;-74
2022/10/08 04:45:44;;;;;;;12.70;5.65;;;25.00;53.80;;;;;;5011508;28;20483;-73
2022/10/08 04:48:11;;;;;;;8.55;5.70;;;25.00;53.30;;;;;;5011262;28;20034;-73
2022/10/08 04:50:38;;;;;;;11.23;6.22;;;25.00;52.80;;;;;;5011711;28;20628;-71
2022/10/08 04:53:05;;;;;;;12.32;5.72;;;25.10;52.40;;;;;;5009763;28;20092;-72
2022/10/08 04:55:32;;;;;;;10.82;6.60;;;25.10;52.20;;;;;;5011553;28;20058;-72
2022/10/08 04:57:58;;;;;;;0.47;0.47;;;25.00;52.00;;;;;;5011417;28;20036;-74
2022/10/08 05:00:24;;;;;;;15.02;7.05;;;25.00;54.90;;;;;;5011612;28;20022;-74
2022/10/08 05:02:50;;;;;;;16.75;8.95;;;25.30;54.00;;;;;;5011804;28;20108;-74
2022/10/08 05:05:17;;;;;;;27.80;11.00;;;25.50;52.10;;;;;;5020883;28;20478;-72
2022/10/08 05:07:43;;;;;;;31.25;12.30;;;25.50;54.00;;;;;;5031296;28;20030;-71
2022/10/08 05:10:09;;;;;;;45.38;15.35;;;25.60;54.20;;;;;;5030173;28;20076;-72
2022/10/08 05:12:35;;;;;;;18.25;8.82;;;25.60;54.50;;;;;;5030396;28;20480;-70
2022/10/08 05:15:01;;;;;;;15.50;8.43;;;25.50;53.70;;;;;;5030640;28;20144;-69
2022/10/08 05:17:27;;;;;;;15.32;7.22;;;25.60;51.30;;;;;;5030196;28;20033;-69
2022/10/08 05:19:53;;;;;;;18.67;8.15;;;25.60;52.00;;;;;;5022446;28;20033;-69
2022/10/08 05:22:19;;;;;;;11.45;2.47;;;25.70;53.10;;;;;;5032291;28;20116;-68
2022/10/08 05:24:45;;;;;;;9.00;4.60;;;25.60;54.80;;;;;;5035695;28;20034;-71
2022/10/08 05:27:11;;;;;;;15.55;5.63;;;25.70;59.60;;;;;;5035046;28;20060;-70
2022/10/08 05:29:37;;;;;;;18.05;7.85;;;25.80;67.80;;;;;;5034378;28;20029;-68
2022/10/08 05:32:03;;;;;;;17.65;8.60;;;26.00;65.70;;;;;;5034388;28;20478;-70
2022/10/08 05:34:29;;;;;;;73.10;20.55;;;26.20;62.30;;;;;;5035263;28;20033;-68
2022/10/08 05:36:55;;;;;;;31.02;12.23;;;26.30;59.00;;;;;;5035210;28;20056;-69
2022/10/08 05:39:21;;;;;;;8.07;6.10;;;26.30;55.10;;;;;;5035164;28;20075;-69
2022/10/08 05:41:47;;;;;;;18.67;10.93;;;26.20;52.60;;;;;;5033331;28;20045;-69
2022/10/08 05:44:13;;;;;;;13.07;7.93;;;26.20;53.40;;;;;;5034291;28;20080;-69
2022/10/08 05:46:39;;;;;;;17.20;8.65;;;26.20;56.00;;;;;;5034191;28;20382;-69
2022/10/08 05:49:09;;;;;;;17.08;8.93;;;26.30;54.80;;;;;;5033968;28;20037;-69
2022/10/08 05:51:37;;;;;;;19.50;9.45;;;26.20;55.00;;;;;;5034210;28;20630;-69
2022/10/08 05:54:03;;;;;;;11.80;8.50;;;26.00;54.80;;;;;;5030545;28;20037;-68
2022/10/08 05:56:30;;;;;;;14.18;8.00;;;26.00;54.70;;;;;;5034404;28;20021;-70
2022/10/08 05:58:56;;;;;;;11.30;7.80;;;25.90;54.40;;;;;;5016257;28;20022;-70
2022/10/08 06:01:28;;;;;;;10.77;7.82;;;25.90;54.90;;;;;;5033895;28;20445;-69
2022/10/08 06:03:58;;;;;;;11.30;8.00;;;25.90;55.20;;;;;;5033449;28;20482;-69
2022/10/08 06:06:25;;;;;;;14.75;8.52;;;25.90;55.30;;;;;;5032249;28;20317;-70
2022/10/08 06:08:57;;;;;;;12.80;8.13;;;25.90;55.40;;;;;;5033717;28;20025;-69
2022/10/08 06:11:25;;;;;;;13.25;8.15;;;25.80;55.50;;;;;;5030729;28;20065;-69
2022/10/08 06:13:52;;;;;;;13.90;7.88;;;25.70;58.10;;;;;;5033656;28;20405;-69
2022/10/08 06:16:19;;;;;;;13.00;8.07;;;25.70;57.00;;;;;;5019024;28;20072;-69
2022/10/08 06:18:45;;;;;;;14.70;7.70;;;25.70;57.00;;;;;;5014761;28;20038;-67
2022/10/08 06:21:14;;;;;;;13.55;8.27;;;25.60;56.90;;;;;;4998225;28;20103;-70
2022/10/08 06:23:46;;;;;;;15.85;8.10;;;25.60;56.90;;;;;;5031089;28;20041;-69
2022/10/08 06:26:12;;;;;;;9.30;7.60;;;25.60;57.00;;;;;;5032183;28;20037;-70
2022/10/08 06:28:39;;;;;;;15.48;8.00;;;25.60;57.20;;;;;;5032811;28;20025;-69
2022/10/08 06:31:06;;;;;;;12.90;8.35;;;25.70;57.50;;;;;;5031324;28;20021;-70
2022/10/08 06:33:33;;;;;;;13.27;8.50;;;25.60;57.50;;;;;;5032433;28;20069;-71
2022/10/08 06:36:12;;;;;;;12.18;8.48;;;25.50;57.30;;;;;;5030196;28;20103;-70
2022/10/08 06:38:38;;;;;;;16.23;8.13;;;25.60;57.50;;;;;;5033341;28;20103;-69
2022/10/08 06:41:04;;;;;;;10.80;8.07;;;25.60;57.70;;;;;;5034509;28;20354;-69
2022/10/08 06:43:31;;;;;;;13.48;7.85;;;25.50;57.50;;;;;;5034610;28;20145;-69
2022/10/08 06:45:59;;;;;;;16.30;8.90;;;25.50;57.50;;;;;;5033999;28;20033;-70
2022/10/08 06:48:26;;;;;;;12.43;7.78;;;25.50;57.30;;;;;;5034414;28;20044;-69
2022/10/08 06:51:00;;;;;;;10.43;6.72;;;25.50;57.30;;;;;;5034294;28;20030;-70
2022/10/08 06:53:26;;;;;;;13.70;7.60;;;25.50;57.30;;;;;;5034178;28;20068;-69
2022/10/08 06:56:01;;;;;;;18.48;8.70;;;25.40;57.50;;;;;;5034244;28;20075;-68
2022/10/08 06:58:27;;;;;;;14.07;7.43;;;25.40;57.70;;;;;;5034152;28;20032;-69
2022/10/08 07:01:20;;;;;;;10.65;7.47;;;25.40;57.50;;;;;;5033933;28;20085;-70
2022/10/08 07:03:51;;;;;;;11.65;7.15;;;25.40;57.70;;;;;;4971797;28;20106;-69
2022/10/08 07:06:17;;;;;;;18.17;7.57;;;25.40;57.60;;;;;;4972005;28;20628;-71
2022/10/08 07:08:44;;;;;;;11.68;6.30;;;25.30;57.70;;;;;;4972482;28;20142;-71
2022/10/08 07:11:14;;;;;;;15.73;7.82;;;25.30;57.80;;;;;;4940885;28;20038;-70
2022/10/08 07:13:41;;;;;;;11.32;6.40;;;25.30;57.90;;;;;;4972959;28;20046;-71
2022/10/08 07:16:09;;;;;;;12.25;6.93;;;25.30;60.40;;;;;;4972867;28;20483;-72
2022/10/08 07:18:37;;;;;;;7.95;6.43;;;25.40;64.20;;;;;;4972797;28;20038;-72
2022/10/08 07:21:04;;;;;;;10.70;6.22;;;25.30;65.60;;;;;;4972368;28;20051;-71
2022/10/08 07:23:31;;;;;;;13.38;6.80;;;25.40;64.00;;;;;;4972535;28;20046;-70
2022/10/08 07:26:03;;;;;;;9.30;5.88;;;25.40;62.60;;;;;;4971616;28;20117;-69
2022/10/08 07:28:32;;;;;;;9.15;6.03;;;25.50;61.70;;;;;;4971309;28;20070;-71
2022/10/08 07:31:05;;;;;;;5.90;4.95;;;25.30;61.20;;;;;;4971981;28;20113;-71
2022/10/08 07:33:32;;;;;;;4.43;3.95;;;25.50;60.50;;;;;;4971386;28;20069;-69
2022/10/08 07:36:09;;;;;;;6.95;5.45;;;25.50;59.90;;;;;;4971151;28;20050;-70
2022/10/08 07:38:35;;;;;;;6.60;3.92;;;25.40;59.60;;;;;;4970672;28;20039;-69
2022/10/08 07:41:01;;;;;;;4.80;3.10;;;25.50;59.20;;;;;;4992714;28;20049;-70
2022/10/08 07:43:27;;;;;;;6.32;3.80;;;25.50;59.00;;;;;;5011918;28;20041;-69
2022/10/08 07:45:53;;;;;;;6.68;3.58;;;25.40;58.90;;;;;;5026701;28;20117;-69
2022/10/08 07:48:20;;;;;;;11.50;4.35;;;25.30;56.60;;;;;;5014740;28;20037;-71
2022/10/08 07:50:46;;;;;;;8.10;4.43;;;25.40;56.20;;;;;;5032203;28;20025;-71
2022/10/08 07:53:12;;;;;;;11.52;4.57;;;25.40;58.20;;;;;;5031495;28;20124;-69
2022/10/08 07:55:38;;;;;;;9.25;4.70;;;25.30;58.10;;;;;;5032122;28;20056;-75
2022/10/08 07:58:05;;;;;;;8.63;3.85;;;25.20;58.20;;;;;;5032228;28;20390;-71
2022/10/08 08:00:31;;;;;;;6.35;4.10;;;25.40;58.10;;;;;;5031250;28;20070;-72
2022/10/08 08:02:57;;;;;;;7.50;5.05;;;25.40;57.80;;;;;;5032169;28;20041;-70
2022/10/08 08:05:23;;;;;;;6.60;4.45;;;25.50;58.00;;;;;;5032989;28;20058;-74
2022/10/08 08:07:49;;;;;;;8.57;3.83;;;25.40;58.10;;;;;;5032840;28;20133;-71
2022/10/08 08:10:15;;;;;;;7.82;3.50;;;25.40;58.30;;;;;;5032530;28;20037;-70
2022/10/08 08:12:42;;;;;;;8.13;3.38;;;25.50;58.40;;;;;;5032560;28;20454;-71
2022/10/08 08:15:08;;;;;;;4.10;2.72;;;25.50;57.60;;;;;;4997736;28;20120;-72
2022/10/08 08:17:34;;;;;;;5.65;3.63;;;25.50;58.20;;;;;;5032928;28;20104;-71
2022/10/08 08:20:00;;;;;;;6.05;3.13;;;25.40;57.60;;;;;;5032612;28;20029;-70
2022/10/08 08:22:26;;;;;;;4.70;3.00;;;25.50;58.20;;;;;;5032846;28;20049;-70
2022/10/08 08:24:53;;;;;;;8.35;2.60;;;25.50;58.10;;;;;;5031617;28;20461;-70
2022/10/08 08:27:19;;;;;;;5.00;2.72;;;25.50;57.90;;;;;;5031937;28;20037;-70
2022/10/08 08:29:45;;;;;;;5.43;2.88;;;25.60;57.60;;;;;;5013272;28;20132;-68
2022/10/08 08:32:11;;;;;;;2.90;2.08;;;25.40;57.70;;;;;;5031990;28;20116;-69
2022/10/08 08:34:37;;;;;;;4.28;2.72;;;25.50;57.70;;;;;;5031803;28;20513;-69
2022/10/08 08:37:03;;;;;;;6.50;2.47;;;25.40;57.70;;;;;;5032436;28;20029;-71
2022/10/08 08:39:30;;;;;;;8.32;2.60;;;25.50;56.70;;;;;;5030771;28;20609;-69
2022/10/08 08:42:18;;;;;;;2.90;1.92;;;25.60;57.80;;;;;;5031160;28;20030;-70
2022/10/08 08:45:28;;;;;;;3.42;1.70;;;25.50;57.90;;;;;;5031527;28;20038;-68
2022/10/08 08:48:05;;;;;;;2.88;2.38;;;25.50;57.80;;;;;;5028241;28;20486;-67
2022/10/08 08:50:35;;;;;;;6.75;3.63;;;25.50;59.90;;;;;;5028438;28;20095;-67
2022/10/08 08:53:02;;;;;;;16.92;5.10;;;25.80;60.40;;;;;;5028502;28;20132;-66
2022/10/08 08:55:33;;;;;;;6.70;3.60;;;26.00;66.90;;;;;;5028346;28;20049;-70
2022/10/08 08:58:12;;;;;;;4.15;1.98;;;26.10;57.50;;;;;;5028433;28;20833;-69
2022/10/08 09:00:46;;;;;;;3.10;2.13;;;26.00;55.40;;;;;;5012376;28;20075;-68
2022/10/08 09:03:39;;;;;;;7.10;2.38;;;26.00;59.40;;;;;;5012606;28;20052;-69
2022/10/08 09:06:12;;;;;;;2.20;1.95;;;26.00;56.10;;;;;;5028682;28;20064;-70
2022/10/08 09:08:59;;;;;;;5.78;2.65;;;25.90;55.80;;;;;;5026613;28;20037;-70
2022/10/08 09:11:28;;;;;;;2.97;1.90;;;26.00;56.10;;;;;;5028337;28;20496;-69
2022/10/08 09:14:30;;;;;;;5.05;2.63;;;25.90;55.40;;;;;;5028456;28;20107;-69
2022/10/08 09:16:58;;;;;;;1.83;1.73;;;26.00;55.60;;;;;;5028622;28;20439;-68
2022/10/08 09:19:24;;;;;;;4.03;1.60;;;26.10;55.60;;;;;;5029980;28;20044;-69
2022/10/08 09:21:50;;;;;;;3.35;2.10;;;25.90;53.30;;;;;;5028851;28;20646;-69
2022/10/08 09:24:18;;;;;;;2.80;2.10;;;25.90;55.20;;;;;;5031697;28;20037;-69
2022/10/08 09:26:44;;;;;;;3.70;1.65;;;25.90;55.10;;;;;;5032054;28;20033;-69
2022/10/08 09:29:32;;;;;;;2.10;1.77;;;25.90;55.00;;;;;;5032331;28;20034;-69
2022/10/08 09:31:59;;;;;;;4.65;1.42;;;25.90;55.40;;;;;;5009706;28;20044;-66
2022/10/08 09:34:26;;;;;;;3.83;1.63;;;26.00;55.90;;;;;;5009218;28;20137;-70
2022/10/08 09:37:02;;;;;;;1.50;1.33;;;25.90;54.10;;;;;;5009775;28;20065;-69
2022/10/08 09:39:34;;;;;;;3.55;2.38;;;25.90;56.00;;;;;;5009717;28;20033;-74
2022/10/08 09:42:06;;;;;;;2.80;1.95;;;25.90;58.20;;;;;;5009775;28;20050;-70
2022/10/08 09:44:42;;;;;;;2.20;1.65;;;25.80;58.40;;;;;;5009586;28;20124;-69
2022/10/08 09:47:14;;;;;;;2.42;1.45;;;25.90;58.30;;;;;;5009311;28;20070;-70
2022/10/08 09:49:41;;;;;;;2.20;1.38;;;25.90;59.40;;;;;;5008259;28;20045;-70
2022/10/08 09:52:27;;;;;;;1.50;1.40;;;26.00;58.70;;;;;;4975591;28;20060;-70
2022/10/08 09:55:21;;;;;;;2.33;1.35;;;26.00;56.90;;;;;;5008221;28;20629;-69
2022/10/08 09:57:52;;;;;;;2.13;1.58;;;26.00;55.40;;;;;;5008040;28;20585;-68
2022/10/08 10:00:34;;;;;;;2.17;1.70;;;26.10;54.70;;;;;;5008067;28;20042;-68
2022/10/08 10:03:03;;;;;;;3.90;1.67;;;26.10;56.00;;;;;;5019739;28;20049;-67
2022/10/08 10:05:35;;;;;;;4.18;1.95;;;26.20;54.20;;;;;;5012836;28;20056;-69
2022/10/08 10:08:02;;;;;;;4.20;2.00;;;26.20;54.60;;;;;;5030141;28;20035;-71
2022/10/08 10:10:39;;;;;;;4.05;1.98;;;26.20;52.80;;;;;;5015434;28;20112;-69
2022/10/08 10:13:33;;;;;;;4.75;2.08;;;26.20;52.50;;;;;;5010964;28;20052;-69
2022/10/08 10:16:04;;;;;;;6.20;1.40;;;26.10;52.40;;;;;;5011754;28;20470;-69
2022/10/08 10:18:42;;;;;;;4.25;2.05;;;26.30;52.40;;;;;;4994886;28;20030;-70
2022/10/08 10:21:16;;;;;;;4.20;2.17;;;26.60;56.10;;;;;;5008078;28;20034;-72
2022/10/08 10:24:01;;;;;;;2.65;1.70;;;27.20;60.40;;;;;;5010532;28;20124;-72
2022/10/08 10:26:34;;;;;;;3.47;1.75;;;27.60;66.10;;;;;;4994268;28;20065;-72
2022/10/08 10:29:07;;;;;;;2.10;1.70;;;28.00;55.60;;;;;;5010661;28;20046;-72
2022/10/08 10:31:58;;;;;;;3.92;1.95;;;27.80;52.70;;;;;;4994176;28;20108;-72
2022/10/08 10:34:28;;;;;;;6.35;3.00;;;27.80;53.30;;;;;;4969341;28;20051;-71
2022/10/08 10:36:58;;;;;;;3.05;2.05;;;27.90;56.10;;;;;;4952041;29;20043;-74
2022/10/08 10:39:44;;;;;;;1.25;1.05;;;28.00;56.60;;;;;;4968785;28;20145;-71
2022/10/08 10:42:34;;;;;;;1.88;1.30;;;28.00;54.10;;;;;;4971149;28;20084;-72
2022/10/08 10:45:25;;;;;;;2.50;1.42;;;27.90;49.80;;;;;;4971210;28;20046;-72
2022/10/08 10:47:53;;;;;;;2.25;1.70;;;27.60;49.20;;;;;;4933264;29;20160;-72
2022/10/08 10:50:32;;;;;;;2.28;1.67;;;27.50;49.70;;;;;;4933012;29;20127;-71
2022/10/08 10:53:34;;;;;;;4.40;2.10;;;27.30;49.30;;;;;;4932628;29;20044;-72
2022/10/08 10:56:17;;;;;;;3.55;1.85;;;27.20;49.60;;;;;;4932679;29;20047;-71
2022/10/08 10:59:19;;;;;;;3.85;1.77;;;27.10;49.20;;;;;;4900842;29;20055;-71
2022/10/08 11:01:48;;;;;;;3.58;1.83;;;27.10;49.50;;;;;;4932379;29;20126;-72
2022/10/08 11:04:33;;;;;;;2.70;1.70;;;27.00;49.80;;;;;;4932036;29;20058;-72
2022/10/08 11:07:11;;;;;;;2.67;2.03;;;27.10;49.80;;;;;;4932319;29;20035;-73
2022/10/08 11:10:13;;;;;;;2.08;1.45;;;27.00;50.00;;;;;;4930526;29;20238;-72
2022/10/08 11:12:52;;;;;;;2.92;1.75;;;26.90;49.30;;;;;;4951040;29;20051;-73
2022/10/08 11:15:35;;;;;;;3.80;2.03;;;26.90;49.50;;;;;;4952104;29;20047;-72
2022/10/08 11:18:33;;;;;;;3.72;1.90;;;26.90;49.10;;;;;;4948054;28;20559;-72
2022/10/08 11:21:24;;;;;;;2.30;1.95;;;26.90;49.80;;;;;;4932940;29;20050;-74
2022/10/08 11:24:14;;;;;;;2.60;2.05;;;26.70;49.00;;;;;;4955825;28;20035;-72
2022/10/08 11:27:01;;;;;;;3.20;1.85;;;26.80;50.00;;;;;;5031269;28;20056;-71
2022/10/08 11:29:44;;;;;;;2.72;2.10;;;26.80;49.00;;;;;;5032871;28;20060;-73
2022/10/08 11:32:16;;;;;;;2.70;2.00;;;26.60;44.30;;;;;;5031538;28;20366;-75
2022/10/08 11:35:15;;;;;;;2.42;1.52;;;26.60;50.20;;;;;;5031426;28;20036;-72
2022/10/08 11:38:15;;;;;;;7.10;1.50;;;26.40;50.80;;;;;;4971122;28;20051;-73
2022/10/08 11:40:47;;;;;;;3.90;1.50;;;26.60;50.70;;;;;;4894601;29;20135;-69
2022/10/08 11:43:23;;;;;;;2.53;1.50;;;26.50;51.00;;;;;;4894834;29;20053;-70
2022/10/08 11:46:28;;;;;;;7.07;1.83;;;26.40;50.80;;;;;;4894383;29;20131;-69
2022/10/08 11:48:59;;;;;;;2.67;1.40;;;26.50;50.80;;;;;;4894823;29;20048;-72
2022/10/08 11:51:25;;;;;;;6.10;2.13;;;26.50;50.50;;;;;;4894803;29;20040;-67
2022/10/08 11:54:15;;;;;;;1.83;1.63;;;26.40;50.80;;;;;;4894473;29;20089;-70
2022/10/08 11:56:53;;;;;;;2.40;1.80;;;26.40;50.90;;;;;;4894613;29;20041;-70
2022/10/08 11:59:26;;;;;;;3.50;1.75;;;26.30;50.90;;;;;;4894579;29;20067;-70
2022/10/08 12:01:55;;;;;;;4.47;1.67;;;26.30;52.90;;;;;;4878724;29;20083;-70
2022/10/08 12:04:28;;;;;;;1.95;1.58;;;26.30;53.10;;;;;;4893987;29;20093;-68
2022/10/08 12:07:17;;;;;;;2.63;1.83;;;26.30;52.40;;;;;;4894388;29;20036;-69
2022/10/08 12:10:21;;;;;;;2.42;1.70;;;26.30;52.40;;;;;;4875473;29;20490;-69
2022/10/08 12:12:50;;;;;;;3.67;1.90;;;26.20;52.50;;;;;;4860964;29;20045;-69
2022/10/08 12:15:22;;;;;;;3.75;2.28;;;26.20;52.40;;;;;;4902613;29;20562;-69
2022/10/08 12:17:52;;;;;;;3.47;2.38;;;26.30;52.40;;;;;;4957924;28;20108;-69
2022/10/08 12:20:29;;;;;;;3.38;1.92;;;26.20;52.40;;;;;;4970510;28;20053;-69
2022/10/08 12:22:59;;;;;;;6.10;1.85;;;26.20;52.20;;;;;;4953359;28;20836;-69
2022/10/08 12:25:33;;;;;;;2.15;1.95;;;26.20;52.20;;;;;;4969633;28;20046;-70
2022/10/08 12:28:17;;;;;;;3.53;1.85;;;26.30;52.20;;;;;;4970265;28;20047;-69
2022/10/08 12:30:59;;;;;;;1.85;1.60;;;26.10;52.30;;;;;;4970200;28;20070;-69
2022/10/08 12:33:26;;;;;;;2.08;1.38;;;26.20;52.20;;;;;;4969572;28;20078;-69
2022/10/08 12:36:10;;;;;;;2.05;1.60;;;26.10;52.00;;;;;;4970220;28;20038;-69
2022/10/08 12:39:03;;;;;;;3.55;1.67;;;26.10;51.70;;;;;;4970213;28;20039;-69
2022/10/08 12:41:40;;;;;;;3.97;1.65;;;26.10;50.80;;;;;;4954008;28;20059;-70
2022/10/08 12:44:21;;;;;;;1.67;1.58;;;26.10;51.20;;;;;;4953526;28;20134;-69
2022/10/08 12:47:19;;;;;;;2.03;1.63;;;26.20;51.60;;;;;;4990493;28;20492;-69
2022/10/08 12:49:55;;;;;;;4.32;1.60;;;26.00;51.60;;;;;;5008709;28;20069;-69
2022/10/08 12:52:22;;;;;;;2.83;1.75;;;26.10;51.70;;;;;;5010939;28;20113;-70
2022/10/08 12:54:57;;;;;;;2.38;1.80;;;26.10;51.70;;;;;;5010897;28;20180;-69
2022/10/08 12:57:25;;;;;;;1.98;1.38;;;26.00;51.70;;;;;;5011207;28;20386;-69
2022/10/08 12:59:52;;;;;;;2.83;1.63;;;26.10;51.70;;;;;;5010929;28;20427;-68
2022/10/08 13:02:39;;;;;;;3.47;1.45;;;26.00;51.70;;;;;;5009962;28;20045;-70
2022/10/08 13:05:24;;;;;;;5.18;1.83;;;26.10;51.80;;;;;;5010640;28;20058;-70
2022/10/08 13:07:51;;;;;;;3.13;1.60;;;26.10;51.80;;;;;;5011180;28;20175;-69
2022/10/08 13:10:22;;;;;;;1.92;1.60;;;26.10;51.80;;;;;;5009732;28;20542;-70
2022/10/08 13:13:25;;;;;;;2.35;2.08;;;26.10;51.80;;;;;;5017294;28;20054;-69